Time;durP1;ratioP1;P1;durP2;ratioP2;P2;SDS_P1;SDS_P2;PMS_P1;PMS_P2;Temp;Humidity;BMP_temperature;BMP_pressure;BME280_temperature;BME280_humidity;BME280_pressure;Samples;Min_cycle;Max_cycle;Signal;HPM_P1;HPM_P2
2021/09/19 00:00:53;;;;;;;;;;;23.50;45.80;;;;;;1552040;75;705;-75
2021/09/19 00:02:55;;;;;;;;;;;23.50;45.90;;;;;;1553799;75;1104;-76
2021/09/19 00:04:57;;;;;;;;;;;23.50;45.90;;;;;;1553757;75;701;-78
2021/09/19 00:06:59;;;;;;;;;;;23.50;46.00;;;;;;1548590;75;703;-75
2021/09/19 00:09:00;;;;;;;;;;;23.50;46.10;;;;;;1560138;75;731;-75
2021/09/19 00:11:02;;;;;;;;;;;23.60;46.10;;;;;;1562691;75;725;-75
2021/09/19 00:13:04;;;;;;;;;;;23.50;46.30;;;;;;1558100;75;1132;-74
2021/09/19 00:15:07;;;;;;;;;;;23.60;46.30;;;;;;1547055;75;747;-75
2021/09/19 00:17:09;;;;;;;;;;;23.60;46.30;;;;;;1563738;75;815;-73
2021/09/19 00:19:13;;;;;;;;;;;23.50;46.40;;;;;;1560426;75;1944;-74
2021/09/19 00:21:15;;;;;;;;;;;23.50;46.40;;;;;;1556618;75;680;-73
2021/09/19 00:23:17;;;;;;;;;;;23.60;46.50;;;;;;1551831;75;1133;-74
2021/09/19 00:25:19;;;;;;;;;;;23.50;46.50;;;;;;1555305;75;741;-75
2021/09/19 00:27:21;;;;;;;;;;;23.50;46.50;;;;;;1551878;75;703;-77
2021/09/19 00:29:23;;;;;;;;;;;23.60;46.50;;;;;;1559214;75;696;-78
2021/09/19 00:31:24;;;;;;;;;;;23.60;46.50;;;;;;1559722;75;734;-77
2021/09/19 00:33:26;;;;;;;;;;;23.60;46.50;;;;;;1559946;75;1136;-77
2021/09/19 00:35:28;;;;;;;;;;;23.60;46.60;;;;;;1551636;75;765;-77
2021/09/19 00:37:30;;;;;;;;;;;23.60;46.60;;;;;;1552312;75;605;-81
2021/09/19 00:39:32;;;;;;;;;;;23.60;46.70;;;;;;1551790;75;1932;-76
2021/09/19 00:41:34;;;;;;;;;;;23.60;46.60;;;;;;1553212;75;726;-76
2021/09/19 00:43:36;;;;;;;;;;;23.60;46.70;;;;;;1548102;75;1154;-75
2021/09/19 00:45:38;;;;;;;;;;;23.60;46.80;;;;;;1554254;75;731;-74
2021/09/19 00:47:40;;;;;;;;;;;23.60;46.80;;;;;;1549360;75;738;-77
2021/09/19 00:49:42;;;;;;;;;;;23.60;46.70;;;;;;1552508;75;712;-74
2021/09/19 00:51:44;;;;;;;;;;;23.60;46.70;;;;;;1567554;75;716;-74
2021/09/19 00:53:46;;;;;;;;;;;23.60;46.70;;;;;;1546907;73;228030;-61
2021/09/19 00:55:49;;;;;;;;;;;23.60;46.70;;;;;;1503642;77;682;-60
2021/09/19 00:57:52;;;;;;;;;;;23.70;46.80;;;;;;1504674;77;1939;-59
2021/09/19 00:59:54;;;;;;;;;;;23.60;46.70;;;;;;1512221;77;2119;-59
2021/09/19 01:01:56;;;;;;;;;;;23.60;46.70;;;;;;1509167;77;678;-57
2021/09/19 01:03:58;;;;;;;;;;;23.60;46.60;;;;;;1519297;76;1181;-59
2021/09/19 01:06:00;;;;;;;;;;;23.60;46.70;;;;;;1519793;77;760;-58
2021/09/19 01:08:02;;;;;;;;;;;23.60;46.60;;;;;;1521378;77;739;-57
2021/09/19 01:10:04;;;;;;;;;;;23.60;46.70;;;;;;1511743;77;791;-57
2021/09/19 01:12:06;;;;;;;;;;;23.70;46.90;;;;;;1512351;77;809;-60
2021/09/19 01:14:08;;;;;;;;;;;23.60;46.90;;;;;;1474819;79;1211;-59
2021/09/19 01:16:10;;;;;;;;;;;23.70;47.10;;;;;;1511323;77;804;-57
2021/09/19 01:18:13;;;;;;;;;;;23.70;47.10;;;;;;1516580;77;1944;-58
2021/09/19 01:20:15;;;;;;;;;;;23.70;47.20;;;;;;1507412;77;757;-56
2021/09/19 01:22:17;;;;;;;;;;;23.60;47.10;;;;;;1503197;77;649;-59
2021/09/19 01:24:20;;;;;;;;;;;23.70;47.30;;;;;;1512511;77;1181;-57
2021/09/19 01:26:23;;;;;;;;;;;23.60;47.10;;;;;;1496805;77;1010;-57
2021/09/19 01:28:25;;;;;;;;;;;23.60;47.20;;;;;;1519896;77;776;-56
2021/09/19 01:30:27;;;;;;;;;;;23.60;47.20;;;;;;1503396;77;743;-60
2021/09/19 01:32:29;;;;;;;;;;;23.60;47.20;;;;;;1509725;77;744;-59
2021/09/19 01:34:31;;;;;;;;;;;23.70;47.40;;;;;;1507986;77;1145;-59
2021/09/19 01:36:35;;;;;;;;;;;23.60;47.20;;;;;;1516617;77;743;-60
2021/09/19 01:38:37;;;;;;;;;;;23.70;47.40;;;;;;1518453;77;1918;-59
2021/09/19 01:40:38;;;;;;;;;;;23.70;47.40;;;;;;1505660;77;720;-59
2021/09/19 01:42:40;;;;;;;;;;;23.70;47.40;;;;;;1518852;77;693;-63
2021/09/19 01:44:42;;;;;;;;;;;23.60;47.30;;;;;;1517655;77;1222;-60
2021/09/19 01:46:44;;;;;;;;;;;23.70;47.40;;;;;;1521380;77;723;-61
2021/09/19 01:48:46;;;;;;;;;;;23.60;47.30;;;;;;1503625;77;842;-60
2021/09/19 01:50:48;;;;;;;;;;;23.70;47.50;;;;;;1517883;77;786;-60
2021/09/19 01:52:50;;;;;;;;;;;23.70;47.50;;;;;;1515130;77;753;-59
2021/09/19 01:54:51;;;;;;;;;;;23.70;47.50;;;;;;1508670;77;1136;-61
2021/09/19 01:56:53;;;;;;;;;;;23.70;47.50;;;;;;1512274;77;836;-59
2021/09/19 01:58:55;;;;;;;;;;;23.60;47.30;;;;;;1501530;77;1935;-61
2021/09/19 02:00:59;;;;;;;;;;;23.60;47.30;;;;;;1511621;77;735;-61
2021/09/19 02:03:01;;;;;;;;;;;23.60;47.30;;;;;;1514434;77;1472;-59
2021/09/19 02:05:04;;;;;;;;;;;23.60;47.30;;;;;;1507650;77;1134;-61
2021/09/19 02:07:05;;;;;;;;;;;23.60;47.30;;;;;;1515347;77;685;-60
2021/09/19 02:09:07;;;;;;;;;;;23.70;47.50;;;;;;1503868;77;735;-61
2021/09/19 02:11:11;;;;;;;;;;;23.70;47.50;;;;;;1504962;77;651;-62
2021/09/19 02:13:12;;;;;;;;;;;23.60;47.40;;;;;;1506394;77;695;-61
2021/09/19 02:15:15;;;;;;;;;;;23.60;47.50;;;;;;1505402;77;725;-60
2021/09/19 02:17:17;;;;;;;;;;;23.60;47.50;;;;;;1499644;77;703;-61
2021/09/19 02:19:19;;;;;;;;;;;23.70;47.60;;;;;;1508173;77;1941;-60
2021/09/19 02:21:21;;;;;;;;;;;23.60;47.50;;;;;;1506995;77;723;-59
2021/09/19 02:23:23;;;;;;;;;;;23.70;47.60;;;;;;1507081;77;1130;-58
2021/09/19 02:25:25;;;;;;;;;;;23.70;47.60;;;;;;1517297;77;677;-61
2021/09/19 02:27:26;;;;;;;;;;;23.60;47.50;;;;;;1505275;77;705;-61
2021/09/19 02:29:28;;;;;;;;;;;23.70;47.60;;;;;;1524291;77;727;-60
2021/09/19 02:31:31;;;;;;;;;;;23.70;47.60;;;;;;1519485;77;794;-60
2021/09/19 02:33:33;;;;;;;;;;;23.70;47.60;;;;;;1514293;77;1138;-60
2021/09/19 02:35:35;;;;;;;;;;;23.70;47.60;;;;;;1510434;77;650;-60
2021/09/19 02:37:37;;;;;;;;;;;23.60;47.40;;;;;;1516431;77;801;-61
2021/09/19 02:39:39;;;;;;;;;;;23.70;47.60;;;;;;1508525;77;1941;-59
2021/09/19 02:41:41;;;;;;;;;;;23.70;47.60;;;;;;1504320;77;781;-61
2021/09/19 02:43:43;;;;;;;;;;;23.70;47.70;;;;;;1499340;77;1175;-58
2021/09/19 02:45:45;;;;;;;;;;;23.70;47.70;;;;;;1506912;77;709;-59
2021/09/19 02:47:47;;;;;;;;;;;23.60;47.50;;;;;;1519356;77;795;-59
2021/09/19 02:49:49;;;;;;;;;;;23.70;47.70;;;;;;1505051;77;715;-59
2021/09/19 02:51:51;;;;;;;;;;;23.70;47.80;;;;;;1518415;77;670;-59
2021/09/19 02:53:53;;;;;;;;;;;23.60;47.60;;;;;;1512139;77;1161;-60
2021/09/19 02:55:55;;;;;;;;;;;23.60;47.60;;;;;;1514999;77;751;-61
2021/09/19 02:57:57;;;;;;;;;;;23.70;47.60;;;;;;1519789;77;747;-60
2021/09/19 02:59:58;;;;;;;;;;;23.70;47.50;;;;;;1508394;77;1933;-60
2021/09/19 03:02:00;;;;;;;;;;;23.70;47.60;;;;;;1517305;77;748;-60
2021/09/19 03:04:02;;;;;;;;;;;23.60;47.50;;;;;;1507807;77;1099;-61
2021/09/19 03:06:04;;;;;;;;;;;23.70;47.70;;;;;;1510857;77;827;-60
2021/09/19 03:08:06;;;;;;;;;;;23.70;47.80;;;;;;1506722;77;729;-61
2021/09/19 03:10:08;;;;;;;;;;;23.70;47.80;;;;;;1516100;77;692;-61
2021/09/19 03:12:10;;;;;;;;;;;23.60;47.80;;;;;;1511000;77;646;-61
2021/09/19 03:14:12;;;;;;;;;;;23.60;47.80;;;;;;1517966;77;1151;-62
2021/09/19 03:16:14;;;;;;;;;;;23.70;47.90;;;;;;1515128;77;739;-59
2021/09/19 03:18:16;;;;;;;;;;;23.60;47.80;;;;;;1510049;77;808;-61
2021/09/19 03:20:17;;;;;;;;;;;23.60;47.80;;;;;;1508556;77;1941;-59
2021/09/19 03:22:19;;;;;;;;;;;23.60;47.80;;;;;;1499731;77;781;-58
2021/09/19 03:24:21;;;;;;;;;;;23.60;47.80;;;;;;1506478;77;1111;-60
2021/09/19 03:26:23;;;;;;;;;;;23.60;47.80;;;;;;1509696;77;722;-59
2021/09/19 03:28:25;;;;;;;;;;;23.70;48.00;;;;;;1508961;77;707;-60
2021/09/19 03:30:27;;;;;;;;;;;23.60;47.80;;;;;;1506338;77;672;-61
2021/09/19 03:32:29;;;;;;;;;;;23.60;47.80;;;;;;1508800;77;747;-60
2021/09/19 03:34:33;;;;;;;;;;;23.60;47.70;;;;;;1506425;77;1159;-60
2021/09/19 03:36:34;;;;;;;;;;;23.70;47.90;;;;;;1504071;77;1633;-60
2021/09/19 03:38:36;;;;;;;;;;;23.70;47.90;;;;;;1512263;77;752;-60
2021/09/19 03:40:38;;;;;;;;;;;23.70;48.00;;;;;;1502908;77;1938;-60
2021/09/19 03:42:40;;;;;;;;;;;23.70;48.00;;;;;;1511765;77;798;-59
2021/09/19 03:44:42;;;;;;;;;;;23.60;47.90;;;;;;1514368;77;1158;-60
2021/09/19 03:46:43;;;;;;;;;;;23.70;48.00;;;;;;1506626;77;706;-60
2021/09/19 03:48:45;;;;;;;;;;;23.70;47.90;;;;;;1513865;77;788;-60
2021/09/19 03:50:47;;;;;;;;;;;23.60;47.90;;;;;;1505332;77;725;-61
2021/09/19 03:52:49;;;;;;;;;;;23.80;48.10;;;;;;1507335;77;727;-60
2021/09/19 03:54:51;;;;;;;;;;;23.70;48.10;;;;;;1506553;77;1138;-61
2021/09/19 03:56:53;;;;;;;;;;;23.70;48.10;;;;;;1509052;77;835;-60
2021/09/19 03:58:55;;;;;;;;;;;23.60;48.00;;;;;;1505453;77;1942;-61
2021/09/19 04:00:56;;;;;;;;;;;23.70;48.10;;;;;;1513457;77;704;-60
2021/09/19 04:02:58;;;;;;;;;;;23.70;48.10;;;;;;1505222;77;746;-60
2021/09/19 04:05:00;;;;;;;;;;;23.70;48.10;;;;;;1507579;77;1119;-61
2021/09/19 04:07:02;;;;;;;;;;;23.60;47.90;;;;;;1506616;77;690;-61
2021/09/19 04:09:04;;;;;;;;;;;23.70;48.10;;;;;;1509671;77;791;-59
2021/09/19 04:11:06;;;;;;;;;;;23.60;47.90;;;;;;1520257;77;698;-61
2021/09/19 04:13:08;;;;;;;;;;;23.70;48.00;;;;;;1511964;77;716;-60
2021/09/19 04:15:10;;;;;;;;;;;23.60;48.00;;;;;;1520346;77;1140;-61
2021/09/19 04:17:12;;;;;;;;;;;23.60;48.00;;;;;;1507889;77;782;-60
2021/09/19 04:19:14;;;;;;;;;;;23.70;48.10;;;;;;1505347;77;1903;-61
2021/09/19 04:21:16;;;;;;;;;;;23.70;48.10;;;;;;1513028;77;749;-61
2021/09/19 04:23:18;;;;;;;;;;;23.70;48.10;;;;;;1518184;77;1150;-59
2021/09/19 04:25:19;;;;;;;;;;;23.60;48.00;;;;;;1509178;77;684;-61
2021/09/19 04:27:21;;;;;;;;;;;23.70;48.10;;;;;;1503028;77;706;-61
2021/09/19 04:29:23;;;;;;;;;;;23.70;48.10;;;;;;1509234;77;743;-60
2021/09/19 04:31:25;;;;;;;;;;;23.70;48.00;;;;;;1501073;77;777;-58
2021/09/19 04:33:27;;;;;;;;;;;23.60;47.90;;;;;;1503951;77;1146;-60
2021/09/19 04:35:29;;;;;;;;;;;23.60;47.90;;;;;;1507398;77;841;-61
2021/09/19 04:37:31;;;;;;;;;;;23.60;47.90;;;;;;1515112;77;807;-60
2021/09/19 04:39:33;;;;;;;;;;;23.50;47.90;;;;;;1522551;77;1937;-59
2021/09/19 04:41:34;;;;;;;;;;;23.70;47.90;;;;;;1517251;77;704;-58
2021/09/19 04:43:36;;;;;;;;;;;23.70;47.90;;;;;;1513618;76;1186;-58
2021/09/19 04:45:39;;;;;;;;;;;23.80;47.90;;;;;;1502176;77;825;-60
2021/09/19 04:47:40;;;;;;;;;;;23.70;47.90;;;;;;1500979;77;705;-59
2021/09/19 04:49:42;;;;;;;;;;;23.70;47.80;;;;;;1500751;77;756;-59
2021/09/19 04:51:44;;;;;;;;;;;23.70;47.80;;;;;;1522507;77;796;-58
2021/09/19 04:53:46;;;;;;;;;;;23.60;47.70;;;;;;1507140;77;1134;-61
2021/09/19 04:55:48;;;;;;;;;;;23.70;47.90;;;;;;1505107;77;924;-60
2021/09/19 04:57:50;;;;;;;;;;;23.60;47.80;;;;;;1501628;77;694;-58
2021/09/19 04:59:52;;;;;;;;;;;23.60;47.80;;;;;;1505500;77;1956;-59
2021/09/19 05:01:54;;;;;;;;;;;23.60;47.90;;;;;;1517479;77;791;-59
2021/09/19 05:03:55;;;;;;;;;;;23.70;48.10;;;;;;1503440;77;1124;-59
2021/09/19 05:05:57;;;;;;;;;;;23.60;47.90;;;;;;1508456;77;722;-59
2021/09/19 05:07:59;;;;;;;;;;;23.70;48.10;;;;;;1510960;77;684;-60
2021/09/19 05:10:01;;;;;;;;;;;23.60;48.10;;;;;;1508697;77;710;-60
2021/09/19 05:12:03;;;;;;;;;;;23.70;48.30;;;;;;1510830;77;740;-60
2021/09/19 05:14:05;;;;;;;;;;;23.70;48.30;;;;;;1501551;77;1091;-59
2021/09/19 05:16:07;;;;;;;;;;;23.70;48.30;;;;;;1505770;77;689;-59
2021/09/19 05:18:09;;;;;;;;;;;23.70;48.30;;;;;;1507440;77;721;-59
2021/09/19 05:20:11;;;;;;;;;;;23.70;48.30;;;;;;1525642;77;1940;-60
2021/09/19 05:22:13;;;;;;;;;;;23.70;48.40;;;;;;1504997;77;738;-60
2021/09/19 05:24:15;;;;;;;;;;;23.70;48.40;;;;;;1515471;77;1118;-60
2021/09/19 05:26:16;;;;;;;;;;;23.60;48.30;;;;;;1507776;77;777;-59
2021/09/19 05:28:18;;;;;;;;;;;23.60;48.20;;;;;;1503220;77;816;-61
2021/09/19 05:30:21;;;;;;;;;;;23.60;48.10;;;;;;1498062;77;729;-60
2021/09/19 05:32:23;;;;;;;;;;;23.70;48.20;;;;;;1506229;77;737;-59
2021/09/19 05:34:25;;;;;;;;;;;23.70;48.30;;;;;;1502819;77;1194;-60
2021/09/19 05:36:27;;;;;;;;;;;23.60;48.20;;;;;;1505450;77;753;-60
2021/09/19 05:38:29;;;;;;;;;;;23.60;48.20;;;;;;1506448;77;790;-59
2021/09/19 05:40:31;;;;;;;;;;;23.60;48.20;;;;;;1502735;77;1950;-61
2021/09/19 05:42:32;;;;;;;;;;;23.60;48.30;;;;;;1494193;77;648;-61
2021/09/19 05:44:34;;;;;;;;;;;23.70;48.50;;;;;;1501270;77;1123;-62
2021/09/19 05:46:36;;;;;;;;;;;23.60;48.40;;;;;;1497724;77;769;-60
2021/09/19 05:48:39;;;;;;;;;;;23.60;48.60;;;;;;1489610;77;795;-61
2021/09/19 05:50:41;;;;;;;;;;;23.60;48.60;;;;;;1496702;77;690;-60
2021/09/19 05:52:43;;;;;;;;;;;23.60;48.70;;;;;;1492173;77;736;-60
2021/09/19 05:54:45;;;;;;;;;;;23.60;48.70;;;;;;1496965;77;1129;-59
2021/09/19 05:56:46;;;;;;;;;;;23.60;48.70;;;;;;1511371;77;787;-61
2021/09/19 05:58:49;;;;;;;;;;;23.60;48.10;;;;;;1514858;77;726;-58
2021/09/19 06:00:51;;;;;;;;;;;23.70;47.50;;;;;;1513453;77;1925;-59
2021/09/19 06:02:53;;;;;;;;;;;23.70;47.80;;;;;;1499880;77;804;-60
2021/09/19 06:04:54;;;;;;;;;;;23.70;47.70;;;;;;1504855;77;1175;-59
2021/09/19 06:06:56;;;;;;;;;;;23.70;47.20;;;;;;1497073;77;722;-60
2021/09/19 06:08:59;;;;;;;;;;;23.70;46.80;;;;;;1495525;77;726;-59
2021/09/19 06:11:00;;;;;;;;;;;23.70;46.80;;;;;;1494141;77;836;-61
2021/09/19 06:13:03;;;;;;;;;;;23.70;46.70;;;;;;1494586;77;668;-59
2021/09/19 06:15:05;;;;;;;;;;;23.60;46.60;;;;;;1499467;77;1124;-60
2021/09/19 06:17:07;;;;;;;;;;;23.60;46.30;;;;;;1494661;77;821;-60
2021/09/19 06:19:09;;;;;;;;;;;23.60;46.10;;;;;;1496252;77;737;-61
2021/09/19 06:21:11;;;;;;;;;;;23.60;45.90;;;;;;1493796;77;1948;-60
2021/09/19 06:23:13;;;;;;;;;;;23.60;45.80;;;;;;1517555;77;727;-60
2021/09/19 06:25:15;;;;;;;;;;;23.60;45.70;;;;;;1505930;77;719;-59
2021/09/19 06:27:17;;;;;;;;;;;23.60;45.30;;;;;;1503058;77;786;-61
2021/09/19 06:29:18;;;;;;;;;;;23.60;45.50;;;;;;1511609;77;725;-61
2021/09/19 06:31:22;;;;;;;;;;;23.60;45.70;;;;;;1512962;77;715;-59
2021/09/19 06:33:26;;;;;;;;;;;23.60;45.70;;;;;;1518735;77;1606;-61
2021/09/19 06:35:28;;;;;;;;;;;23.60;45.50;;;;;;1504127;77;763;-60
2021/09/19 06:37:29;;;;;;;;;;;23.60;45.50;;;;;;1510024;77;800;-59
2021/09/19 06:39:31;;;;;;;;;;;23.60;45.60;;;;;;1522802;72;223099;-71
2021/09/19 06:41:33;;;;;;;;;;;23.50;45.70;;;;;;1540747;76;1947;-72
2021/09/19 06:43:35;;;;;;;;;;;23.60;45.60;;;;;;1543785;76;775;-72
2021/09/19 06:45:37;;;;;;;;;;;23.50;45.50;;;;;;1548171;76;691;-74
2021/09/19 06:47:40;;;;;;;;;;;23.60;45.40;;;;;;1541340;76;695;-74
2021/09/19 06:49:42;;;;;;;;;;;23.50;45.30;;;;;;1551157;76;1197;-72
2021/09/19 06:51:44;;;;;;;;;;;23.60;45.30;;;;;;1541738;76;699;-73
2021/09/19 06:53:46;;;;;;;;;;;23.50;45.20;;;;;;1545672;76;742;-69
2021/09/19 06:55:47;;;;;;;;;;;23.50;45.00;;;;;;1540575;76;912;-66
2021/09/19 06:57:56;;;;;;;;;;;23.50;44.70;;;;;;1521928;76;714;-70
2021/09/19 06:59:58;;;;;;;;;;;23.50;44.80;;;;;;1524893;76;1949;-69
2021/09/19 07:02:00;;;;;;;;;;;23.60;44.90;;;;;;1522748;76;695;-69
2021/09/19 07:04:02;;;;;;;;;;;23.60;44.90;;;;;;1528719;76;845;-69
2021/09/19 07:06:04;;;;;;;;;;;23.50;44.90;;;;;;1532684;76;731;-69
2021/09/19 07:08:06;;;;;;;;;;;23.60;45.20;;;;;;1523286;76;709;-69
2021/09/19 07:10:09;;;;;;;;;;;23.60;45.00;;;;;;1531035;75;1107;-70
2021/09/19 07:12:11;;;;;;;;;;;23.70;44.90;;;;;;1513700;76;854;-67
2021/09/19 07:14:13;;;;;;;;;;;23.70;44.60;;;;;;1527100;76;755;-66
2021/09/19 07:16:14;;;;;;;;;;;23.80;44.50;;;;;;1525978;76;775;-67
2021/09/19 07:18:16;;;;;;;;;;;23.90;44.40;;;;;;1533155;76;728;-67
2021/09/19 07:20:18;;;;;;;;;;;23.90;44.30;;;;;;1522257;76;1934;-64
2021/09/19 07:22:20;;;;;;;;;;;24.00;44.20;;;;;;1535102;75;793;-67
2021/09/19 07:24:22;;;;;;;;;;;23.90;44.30;;;;;;1535052;76;794;-67
2021/09/19 07:26:24;;;;;;;;;;;23.80;44.40;;;;;;1520955;76;757;-65
2021/09/19 07:28:27;;;;;;;;;;;23.90;44.20;;;;;;1535107;75;1137;-67
2021/09/19 07:30:29;;;;;;;;;;;23.90;44.00;;;;;;1536976;76;752;-67
2021/09/19 07:32:31;;;;;;;;;;;23.80;43.90;;;;;;1533535;76;735;-68
2021/09/19 07:34:35;;;;;;;;;;;23.80;43.90;;;;;;1509821;77;722;-68
2021/09/19 07:36:37;;;;;;;;;;;23.80;43.90;;;;;;1520093;77;686;-68
2021/09/19 07:38:39;;;;;;;;;;;23.70;43.90;;;;;;1513750;77;1191;-67
2021/09/19 07:40:41;;;;;;;;;;;23.70;43.90;;;;;;1515282;77;1941;-67
2021/09/19 07:42:43;;;;;;;;;;;23.60;43.90;;;;;;1517327;77;686;-68
2021/09/19 07:44:45;;;;;;;;;;;23.60;43.90;;;;;;1513031;77;704;-67
2021/09/19 07:46:49;;;;;;;;;;;23.60;43.90;;;;;;1519419;77;795;-66
2021/09/19 07:48:50;;;;;;;;;;;23.60;43.90;;;;;;1520848;77;1890;-66
2021/09/19 07:50:52;;;;;;;;;;;23.50;43.90;;;;;;1512936;77;711;-66
2021/09/19 07:52:54;;;;;;;;;;;23.60;44.10;;;;;;1516940;77;764;-65
2021/09/19 07:54:56;;;;;;;;;;;23.50;44.00;;;;;;1517901;77;732;-64
2021/09/19 07:56:58;;;;;;;;;;;23.50;44.10;;;;;;1513854;77;709;-65
2021/09/19 07:59:00;;;;;;;;;;;23.50;44.10;;;;;;1512019;77;1127;-66
2021/09/19 08:01:02;;;;;;;;;;;23.50;44.20;;;;;;1499501;77;1929;-63
2021/09/19 08:03:04;;;;;;;;;;;23.40;44.00;;;;;;1522949;77;747;-72
2021/09/19 08:05:06;;;;;;;;;;;23.50;44.10;;;;;;1507270;77;746;-67
2021/09/19 08:07:08;;;;;;;;;;;23.50;44.10;;;;;;1513889;77;805;-65
2021/09/19 08:09:10;;;;;;;;;;;23.40;44.10;;;;;;1520426;77;1086;-66
2021/09/19 08:11:12;;;;;;;;;;;23.40;44.10;;;;;;1523312;77;811;-66
2021/09/19 08:13:14;;;;;;;;;;;23.40;44.10;;;;;;1515709;77;717;-65
2021/09/19 08:15:16;;;;;;;;;;;23.30;44.20;;;;;;1530408;77;749;-64
2021/09/19 08:17:18;;;;;;;;;;;23.30;44.20;;;;;;1523426;77;753;-66
2021/09/19 08:19:21;;;;;;;;;;;23.40;44.20;;;;;;1513294;77;1144;-65
2021/09/19 08:21:23;;;;;;;;;;;23.30;44.20;;;;;;1513299;77;1911;-66
2021/09/19 08:23:25;;;;;;;;;;;23.30;44.30;;;;;;1516549;77;722;-66
2021/09/19 08:25:27;;;;;;;;;;;23.30;44.40;;;;;;1506423;77;703;-65
2021/09/19 08:27:30;;;;;;;;;;;23.40;44.40;;;;;;1504995;77;999;-66
2021/09/19 08:29:32;;;;;;;;;;;23.30;44.40;;;;;;1509357;77;1207;-65
2021/09/19 08:31:34;;;;;;;;;;;23.30;44.40;;;;;;1509139;77;738;-66
2021/09/19 08:33:36;;;;;;;;;;;23.30;44.40;;;;;;1518179;77;888;-66
2021/09/19 08:35:38;;;;;;;;;;;23.40;44.50;;;;;;1512626;77;733;-65
2021/09/19 08:37:40;;;;;;;;;;;23.40;44.50;;;;;;1510866;77;714;-65
2021/09/19 08:39:42;;;;;;;;;;;23.40;44.50;;;;;;1511537;77;1146;-66
2021/09/19 08:41:49;;;;;;;;;;;23.40;44.60;;;;;;1517819;77;1937;-66
2021/09/19 08:43:48;;;;;;;;;;;23.30;44.60;;;;;;1505721;77;1770;-65
2021/09/19 08:45:50;;;;;;;;;;;23.30;44.70;;;;;;1497234;77;719;-66
2021/09/19 08:47:52;;;;;;;;;;;23.30;44.60;;;;;;1504292;77;689;-68
2021/09/19 08:49:54;;;;;;;;;;;23.40;44.70;;;;;;1513523;77;1177;-66
2021/09/19 08:51:56;;;;;;;;;;;23.30;44.80;;;;;;1513216;77;715;-65
2021/09/19 08:53:57;;;;;;;;;;;23.40;45.30;;;;;;1509926;77;723;-66
2021/09/19 08:55:59;;;;;;;;;;;23.50;45.80;;;;;;1502565;77;900;-65
2021/09/19 08:58:01;;;;;;;;;;;23.50;45.80;;;;;;1499949;77;663;-67
2021/09/19 09:00:07;;;;;;;;;;;23.50;45.80;;;;;;1500890;77;1153;-66
2021/09/19 09:02:09;;;;;;;;;;;23.60;45.90;;;;;;1504063;77;1946;-66
2021/09/19 09:04:11;;;;;;;;;;;23.60;46.20;;;;;;1502705;77;700;-69
2021/09/19 09:06:14;;;;;;;;;;;23.70;46.20;;;;;;1510167;75;804;-66
2021/09/19 09:08:16;;;;;;;;;;;23.70;46.00;;;;;;1469136;78;687;-68
2021/09/19 09:10:20;;;;;;;;;;;23.80;46.00;;;;;;1479443;78;1156;-67
2021/09/19 09:12:22;;;;;;;;;;;23.70;45.90;;;;;;1499987;77;701;-69
2021/09/19 09:14:24;;;;;;;;;;;23.80;45.70;;;;;;1469262;79;727;-68
2021/09/19 09:16:27;;;;;;;;;;;23.80;45.60;;;;;;1475119;78;1349;-65
2021/09/19 09:18:32;;;;;;;;;;;23.90;45.60;;;;;;1525903;76;1094;-65
2021/09/19 09:20:48;;;;;;;;;;;23.90;45.50;;;;;;1524860;76;881;-67
2021/09/19 09:22:50;;;;;;;;;;;23.80;45.30;;;;;;1520360;76;1938;-64
2021/09/19 09:25:05;;;;;;;;;;;23.80;45.20;;;;;;1521113;76;731;-64
2021/09/19 09:27:25;;;;;;;;;;;23.90;45.20;;;;;;1523094;76;1779;-65
2021/09/19 09:29:27;;;;;;;;;;;23.90;45.10;;;;;;1525046;76;1174;-65
2021/09/19 09:31:39;;;;;;;;;;;23.90;45.10;;;;;;1520637;76;689;-66
2021/09/19 09:33:43;;;;;;;;;;;24.00;45.10;;;;;;1528655;76;711;-65
2021/09/19 09:35:45;;;;;;;;;;;23.90;45.00;;;;;;1516604;76;1665;-65
2021/09/19 09:37:47;;;;;;;;;;;24.00;45.00;;;;;;1522678;76;714;-65
2021/09/19 09:39:49;;;;;;;;;;;23.90;45.00;;;;;;1526396;76;1123;-65
2021/09/19 09:41:51;;;;;;;;;;;24.00;44.90;;;;;;1530131;76;1945;-64
2021/09/19 09:43:53;;;;;;;;;;;24.00;44.90;;;;;;1525564;76;705;-65
2021/09/19 09:45:55;;;;;;;;;;;24.00;44.90;;;;;;1527884;76;734;-66
2021/09/19 09:47:57;;;;;;;;;;;23.90;44.90;;;;;;1514897;76;902;-66
2021/09/19 09:49:59;;;;;;;;;;;24.00;44.90;;;;;;1518865;75;1148;-65
2021/09/19 09:52:19;;;;;;;;;;;24.00;44.80;;;;;;1521257;76;826;-67
2021/09/19 09:54:21;;;;;;;;;;;24.00;45.00;;;;;;1526039;76;721;-69
2021/09/19 09:56:23;;;;;;;;;;;24.00;44.90;;;;;;1520227;76;773;-71
2021/09/19 09:58:25;;;;;;;;;;;24.10;45.10;;;;;;1529136;76;1127;-68
2021/09/19 10:00:27;;;;;;;;;;;24.00;45.00;;;;;;1537064;76;749;-70
2021/09/19 10:02:29;;;;;;;;;;;24.10;45.10;;;;;;1540751;75;1928;-69
2021/09/19 10:04:32;;;;;;;;;;;24.10;44.90;;;;;;1545089;76;724;-71
2021/09/19 10:06:34;;;;;;;;;;;24.10;44.90;;;;;;1530906;75;803;-68
2021/09/19 10:08:35;;;;;;;;;;;24.00;44.70;;;;;;1522953;77;1132;-69
2021/09/19 10:10:40;;;;;;;;;;;24.10;44.80;;;;;;1535188;76;746;-68
2021/09/19 10:12:42;;;;;;;;;;;24.10;44.70;;;;;;1530186;76;713;-67
2021/09/19 10:14:44;;;;;;;;;;;24.10;44.40;;;;;;1533286;76;757;-68
2021/09/19 10:16:46;;;;;;;;;;;24.10;44.40;;;;;;1533390;76;709;-68
2021/09/19 10:18:48;;;;;;;;;;;24.10;44.40;;;;;;1533087;75;1145;-67
2021/09/19 10:20:50;;;;;;;;;;;24.10;44.40;;;;;;1526630;75;656;-69
2021/09/19 10:22:57;;;;;;;;;;;24.10;44.30;;;;;;1532318;76;1932;-67
2021/09/19 10:24:58;;;;;;;;;;;24.00;44.20;;;;;;1522171;75;759;-69
2021/09/19 10:27:00;;;;;;;;;;;24.00;44.20;;;;;;1533030;75;695;-69
2021/09/19 10:29:02;;;;;;;;;;;24.00;44.20;;;;;;1528211;75;1174;-67
2021/09/19 10:31:12;;;;;;;;;;;24.00;44.20;;;;;;1543584;76;748;-67
2021/09/19 10:33:32;;;;;;;;;;;24.00;44.10;;;;;;1519674;76;766;-70
2021/09/19 10:35:34;;;;;;;;;;;24.00;44.10;;;;;;1537836;75;786;-67
2021/09/19 10:37:38;;;;;;;;;;;24.00;44.10;;;;;;1546611;76;812;-67
2021/09/19 10:39:41;;;;;;;;;;;24.00;44.00;;;;;;1511020;75;1874;-66
2021/09/19 10:42:01;;;;;;;;;;;24.00;43.90;;;;;;1532369;76;1920;-68
2021/09/19 10:44:03;;;;;;;;;;;24.00;44.00;;;;;;1531508;76;715;-67
2021/09/19 10:46:05;;;;;;;;;;;24.00;43.90;;;;;;1520939;77;1205;-68
2021/09/19 10:48:10;;;;;;;;;;;23.90;43.90;;;;;;1538617;76;783;-67
2021/09/19 10:50:22;;;;;;;;;;;24.00;43.90;;;;;;1528046;76;1100;-67
2021/09/19 10:52:26;;;;;;;;;;;23.90;44.00;;;;;;1522505;76;773;-67
2021/09/19 10:54:45;;;;;;;;;;;23.90;44.00;;;;;;1534790;76;1504;-67
2021/09/19 10:56:56;;;;;;;;;;;23.90;44.00;;;;;;1546771;76;721;-68
2021/09/19 10:58:58;;;;;;;;;;;23.90;44.00;;;;;;1524817;76;1077;-69
2021/09/19 11:01:20;;;;;;;;;;;24.00;44.00;;;;;;1522947;75;742;-67
2021/09/19 11:03:28;;;;;;;;;;;23.90;44.00;;;;;;1522395;75;1936;-67
2021/09/19 11:05:34;;;;;;;;;;;23.90;44.00;;;;;;1538367;76;764;-67
2021/09/19 11:07:35;;;;;;;;;;;23.90;44.00;;;;;;1524912;76;800;-68
2021/09/19 11:09:37;;;;;;;;;;;23.90;44.10;;;;;;1528327;76;1135;-65
2021/09/19 11:11:39;;;;;;;;;;;23.90;44.20;;;;;;1540774;76;727;-67
2021/09/19 11:13:42;;;;;;;;;;;23.90;44.10;;;;;;1545761;75;689;-68
2021/09/19 11:15:44;;;;;;;;;;;23.80;44.00;;;;;;1547434;76;717;-67
2021/09/19 11:17:47;;;;;;;;;;;23.80;44.00;;;;;;1533799;76;679;-64
2021/09/19 11:19:56;;;;;;;;;;;23.90;44.20;;;;;;1535780;75;1127;-67
2021/09/19 11:21:58;;;;;;;;;;;23.80;44.10;;;;;;1526391;76;1946;-68
2021/09/19 11:24:01;;;;;;;;;;;23.90;44.20;;;;;;1557172;75;800;-69
2021/09/19 11:26:04;;;;;;;;;;;23.90;44.20;;;;;;1533023;75;713;-68
2021/09/19 11:28:06;;;;;;;;;;;23.80;44.20;;;;;;1533015;75;688;-67
2021/09/19 11:30:08;;;;;;;;;;;23.80;44.10;;;;;;1535192;76;1158;-66
2021/09/19 11:32:10;;;;;;;;;;;23.80;44.10;;;;;;1548565;75;723;-64
2021/09/19 11:34:15;;;;;;;;;;;23.80;44.10;;;;;;1532393;76;714;-67
2021/09/19 11:36:18;;;;;;;;;;;23.90;44.20;;;;;;1542596;75;707;-67
2021/09/19 11:38:20;;;;;;;;;;;23.80;44.20;;;;;;1526578;76;1131;-68
2021/09/19 11:40:22;;;;;;;;;;;23.80;44.20;;;;;;1531036;76;744;-67
2021/09/19 11:42:28;;;;;;;;;;;23.70;44.20;;;;;;1531307;75;1963;-68
2021/09/19 11:44:29;;;;;;;;;;;23.80;44.10;;;;;;1533225;76;678;-68
2021/09/19 11:46:31;;;;;;;;;;;23.70;44.20;;;;;;1530889;75;740;-69
2021/09/19 11:48:33;;;;;;;;;;;23.80;44.30;;;;;;1537218;75;1187;-68
2021/09/19 11:50:37;;;;;;;;;;;23.80;44.30;;;;;;1548623;75;777;-68
2021/09/19 11:52:39;;;;;;;;;;;23.80;44.30;;;;;;1534745;76;1457;-67
2021/09/19 11:54:41;;;;;;;;;;;23.80;44.20;;;;;;1533602;75;758;-68
2021/09/19 11:56:47;;;;;;;;;;;23.70;44.30;;;;;;1526389;76;978;-68
2021/09/19 11:58:49;;;;;;;;;;;23.70;44.40;;;;;;1528845;75;1158;-68
2021/09/19 12:00:54;;;;;;;;;;;23.80;44.40;;;;;;1531194;76;788;-67
2021/09/19 12:02:56;;;;;;;;;;;23.80;44.40;;;;;;1535023;76;1927;-68
2021/09/19 12:05:00;;;;;;;;;;;23.80;44.40;;;;;;1524929;76;741;-67
2021/09/19 12:07:02;;;;;;;;;;;23.70;44.40;;;;;;1536018;76;729;-68
2021/09/19 12:09:05;;;;;;;;;;;23.70;44.40;;;;;;1527240;75;1157;-68
2021/09/19 12:11:08;;;;;;;;;;;23.70;44.40;;;;;;1533079;75;1880;-67